Mirny, Russia
Current Conditions -  °F | °C
As of 4:00 PM on Thursday 23 Oct 2014 (Local Time) from URKK Reporting Station
Broken Clouds Broken Clouds  
Wind Chill: 70°   Ceiling: 20000
Heat Index: 70°   Visibility: 6mi
Dew Point: 43°   Wind: 9mph
Humidity: 38%   Direction: 100°E
Pressure: 29.88"   Gusts: NA
Location:  45.55°N, 38.91°E
Report Text: URKK 231300Z 10004MPS 9000 BKN200 21/06 Q1012 NOSIG RMK QFE756SC070
Loading
Personal Weather Stations






























Interactive Weather Map
Tropical Storm Tracking
New forecast layout! Learn more

10-Day Weather Forecast

Advertisements
Track Severe Weather on mobile